This is the latest recevied weather packets stored in our database for station/object SV1RVP-13. If no packets are shown the sender has not sent any weather packets the latest 10 day(s).
| Time | Temp. | Humidity | Pressure | Rain* | Wind** | Luminosity | Snow |
|---|---|---|---|---|---|---|---|
| 1777556922 | 22.78° C | 57% | 1012 hPa | 0 mm | - | - | - |
| 1777556326 | 22.78° C | 59% | 1012 hPa | 0 mm | - | - | - |
| 1777555717 | 22.22° C | 59% | 1012.1 hPa | 0 mm | - | - | - |
| 1777555115 | 22.78° C | 58% | 1012.3 hPa | 0 mm | - | - | - |
| 1777554513 | 22.78° C | 60% | 1012.4 hPa | 0 mm | - | - | - |
| 1777553906 | 22.78° C | 59% | 1012.5 hPa | 0 mm | - | - | - |
| 1777553307 | 23.33° C | 57% | 1012.7 hPa | 0 mm | - | - | - |
| 1777552728 | 23.33° C | 56% | 1012.8 hPa | 0 mm | - | - | - |
| 1777552122 | 23.89° C | 56% | 1012.9 hPa | 0 mm | - | - | - |
| 1777551526 | 23.89° C | 56% | 1012.9 hPa | 0 mm | - | - | - |
| 1777550917 | 23.89° C | 55% | 1013.1 hPa | 0 mm | - | - | - |
| 1777550313 | 24.44° C | 51% | 1013.3 hPa | 0 mm | - | - | - |
| 1777549717 | 23.89° C | 52% | 1013.5 hPa | 0 mm | - | - | - |
| 1777549111 | 23.89° C | 53% | 1013.6 hPa | 0 mm | - | - | - |
| 1777548515 | 23.89° C | 53% | 1013.6 hPa | 0 mm | - | - | - |
| 1777547932 | 24.44° C | 49% | 1013.7 hPa | 0 mm | - | - | - |
| 1777547325 | 25° C | 44% | 1013.7 hPa | 0 mm | - | - | - |
| 1777546724 | 25.56° C | 42% | 1013.9 hPa | 0 mm | - | - | - |
| 1777546127 | 25.56° C | 41% | 1013.9 hPa | 0 mm | - | - | - |
| 1777545520 | 25.56° C | 42% | 1013.9 hPa | 0 mm | - | - | - |
| 1777544924 | 25.56° C | 42% | 1013.9 hPa | 0 mm | - | - | - |
| 1777544316 | 25° C | 43% | 1014 hPa | 0 mm | - | - | - |
| 1777543707 | 25° C | 43% | 1014.2 hPa | 0 mm | - | - | - |
| 1777543120 | 25° C | 43% | 1014.4 hPa | 0 mm | - | - | - |
| 1777542523 | 25° C | 44% | 1014.5 hPa | 0 mm | - | - | - |
* Rain since midnight (hover to see other rain measurements)
** Current wind speed in m/s (hover to see current wind gust speed)